createdAt,value
2018-11-07T00:00:02.391Z,9.63
2018-11-07T00:02:33.045Z,9.66
2018-11-07T00:05:03.527Z,9.68
2018-11-07T00:07:34.124Z,9.63
2018-11-07T00:10:19.342Z,9.67
2018-11-07T00:12:49.829Z,9.67
2018-11-07T00:15:20.369Z,9.69
2018-11-07T00:17:50.937Z,9.74
2018-11-07T00:20:21.446Z,9.75
2018-11-07T00:22:52.272Z,9.73
2018-11-07T00:25:22.637Z,9.70
2018-11-07T00:27:53.048Z,9.68
2018-11-07T00:30:23.462Z,9.69
2018-11-07T00:32:53.929Z,9.71
2018-11-07T00:35:24.436Z,9.71
2018-11-07T00:37:54.903Z,9.69
2018-11-07T00:40:25.429Z,9.69
2018-11-07T00:42:55.900Z,9.64
2018-11-07T00:45:26.346Z,9.65
2018-11-07T00:47:56.702Z,9.65
2018-11-07T00:50:27.228Z,9.64
2018-11-07T00:52:57.669Z,9.52
2018-11-07T00:55:28.131Z,9.53
2018-11-07T00:57:58.545Z,9.52
2018-11-07T01:00:29.039Z,9.43
2018-11-07T01:02:59.460Z,9.32
2018-11-07T01:05:29.984Z,9.29
2018-11-07T01:08:00.491Z,9.30
2018-11-07T01:10:30.884Z,9.28
2018-11-07T01:13:01.290Z,9.32
2018-11-07T01:15:32.593Z,9.26
2018-11-07T01:18:02.906Z,9.17
2018-11-07T01:20:34.335Z,9.18
2018-11-07T01:23:05.013Z,9.12
2018-11-07T01:25:35.438Z,9.15
2018-11-07T01:28:05.896Z,9.04
2018-11-07T01:30:36.315Z,9.06
2018-11-07T01:33:07.172Z,9.03
2018-11-07T01:35:37.572Z,8.98
2018-11-07T01:38:08.143Z,8.83
2018-11-07T01:40:38.609Z,8.83
2018-11-07T01:43:09.276Z,8.73
2018-11-07T01:45:39.788Z,8.78
2018-11-07T01:48:10.282Z,8.73
2018-11-07T01:50:40.795Z,8.74
2018-11-07T01:53:11.153Z,8.78
2018-11-07T01:55:41.612Z,8.77
2018-11-07T01:58:12.006Z,8.72
2018-11-07T02:00:42.442Z,8.71
2018-11-07T02:03:13.109Z,8.62
2018-11-07T02:05:44.440Z,8.69
2018-11-07T02:08:14.948Z,8.68
2018-11-07T02:10:45.414Z,8.63
2018-11-07T02:13:15.792Z,8.63
2018-11-07T02:15:46.288Z,8.69
2018-11-07T02:18:16.705Z,8.68
2018-11-07T02:20:47.180Z,8.58
2018-11-07T02:23:18.126Z,8.64
2018-11-07T02:25:48.791Z,8.50
2018-11-07T02:28:19.317Z,8.44
2018-11-07T02:30:49.762Z,8.46
2018-11-07T02:33:20.281Z,8.47
2018-11-07T02:35:50.832Z,8.42
2018-11-07T02:38:21.180Z,8.38
2018-11-07T02:40:51.744Z,8.39
2018-11-07T02:43:22.434Z,8.44
2018-11-07T02:45:53.936Z,8.54
2018-11-07T02:48:24.385Z,8.60
2018-11-07T02:50:54.824Z,8.64
2018-11-07T02:53:25.383Z,8.54
2018-11-07T02:55:55.765Z,8.52
2018-11-07T02:58:26.227Z,8.56
2018-11-07T03:00:56.657Z,8.54
2018-11-07T03:03:27.333Z,8.52
2018-11-07T03:05:57.893Z,8.51
2018-11-07T03:08:31.748Z,8.60
2018-11-07T03:11:03.731Z,8.64
2018-11-07T03:13:34.409Z,8.71
2018-11-07T03:16:04.868Z,8.72
2018-11-07T03:18:35.362Z,8.75
2018-11-07T03:21:05.911Z,8.73
2018-11-07T03:23:36.448Z,8.75
2018-11-07T03:26:07.018Z,8.74
2018-11-07T03:28:37.468Z,8.75
2018-11-07T03:31:07.980Z,8.82
2018-11-07T03:33:38.470Z,8.83
2018-11-07T03:36:08.895Z,8.82
2018-11-07T03:38:39.370Z,8.84
2018-11-07T03:41:09.865Z,8.85
2018-11-07T03:43:40.456Z,8.86
2018-11-07T03:46:11.043Z,8.81
2018-11-07T03:48:41.610Z,8.80
2018-11-07T03:51:12.041Z,8.82
2018-11-07T03:53:42.393Z,8.79
2018-11-07T03:56:12.896Z,8.83
2018-11-07T03:58:43.330Z,8.81
2018-11-07T04:01:13.769Z,8.79
2018-11-07T04:03:44.248Z,8.79
2018-11-07T04:06:14.577Z,8.82
2018-11-07T04:08:45.039Z,8.79
2018-11-07T04:11:15.495Z,8.72
2018-11-07T04:13:46.019Z,8.77
2018-11-07T04:16:16.440Z,8.82
2018-11-07T04:18:46.897Z,8.87
2018-11-07T04:21:17.429Z,8.86
2018-11-07T04:23:52.023Z,8.90
2018-11-07T04:26:22.480Z,8.85
2018-11-07T04:28:52.902Z,8.87
2018-11-07T04:31:23.559Z,8.92
2018-11-07T04:33:53.982Z,8.88
2018-11-07T04:36:24.829Z,8.90
2018-11-07T04:38:55.924Z,8.78
2018-11-07T04:41:26.365Z,8.82
2018-11-07T04:43:56.995Z,8.83
2018-11-07T04:46:27.518Z,8.84
2018-11-07T04:48:57.948Z,8.89
2018-11-07T04:51:28.331Z,8.85
2018-11-07T04:53:58.806Z,8.83
2018-11-07T04:56:29.304Z,8.88
2018-11-07T04:58:59.756Z,8.90
2018-11-07T05:01:30.166Z,8.90
2018-11-07T05:04:00.661Z,8.84
2018-11-07T05:06:31.076Z,8.84
2018-11-07T05:09:01.449Z,8.86
2018-11-07T05:11:31.958Z,8.78
2018-11-07T05:14:02.405Z,8.82
2018-11-07T05:16:32.877Z,8.84
2018-11-07T05:19:03.361Z,8.86
2018-11-07T05:21:33.812Z,8.90
2018-11-07T05:24:04.500Z,8.87
2018-11-07T05:26:34.933Z,8.89
2018-11-07T05:29:05.463Z,8.94
2018-11-07T05:31:36.006Z,8.88
2018-11-07T05:34:06.475Z,8.91
2018-11-07T05:36:36.936Z,8.91
2018-11-07T05:39:09.431Z,8.94
2018-11-07T05:41:39.868Z,8.97
2018-11-07T05:44:10.603Z,8.95
2018-11-07T05:46:41.132Z,9.01
2018-11-07T05:49:11.665Z,8.97
2018-11-07T05:51:42.029Z,9.00
2018-11-07T05:54:12.540Z,9.03
2018-11-07T05:56:42.918Z,9.03
2018-11-07T05:59:13.349Z,9.09
2018-11-07T06:01:43.825Z,9.11
2018-11-07T06:04:16.057Z,9.16
2018-11-07T06:06:46.588Z,9.24
2018-11-07T06:09:16.981Z,9.29
2018-11-07T06:11:48.269Z,9.28
2018-11-07T06:14:18.763Z,9.36
2018-11-07T06:16:49.218Z,9.42
2018-11-07T06:19:19.739Z,9.46
2018-11-07T06:21:50.114Z,9.45
2018-11-07T06:24:20.926Z,9.49
2018-11-07T06:26:51.386Z,9.55
2018-11-07T06:29:21.998Z,9.59
2018-11-07T06:31:52.416Z,9.65
2018-11-07T06:34:22.923Z,9.65
2018-11-07T06:36:53.358Z,9.69
2018-11-07T06:39:23.817Z,9.77
2018-11-07T06:41:54.255Z,9.84
2018-11-07T06:44:24.848Z,9.89
2018-11-07T06:46:55.300Z,9.97
2018-11-07T06:49:25.737Z,10.08
2018-11-07T06:51:56.158Z,10.13
2018-11-07T06:54:26.644Z,10.12
2018-11-07T06:56:57.120Z,10.19
2018-11-07T06:59:27.570Z,10.23
2018-11-07T07:01:58.061Z,10.33
2018-11-07T07:04:28.692Z,10.49
2018-11-07T07:06:59.214Z,10.61
2018-11-07T07:09:29.630Z,10.62
2018-11-07T07:12:00.096Z,10.64
2018-11-07T07:14:30.558Z,10.75
2018-11-07T07:17:01.009Z,10.76
2018-11-07T07:19:31.633Z,10.76
2018-11-07T07:22:02.189Z,10.82
2018-11-07T07:24:32.963Z,10.82
2018-11-07T07:27:03.316Z,10.86
2018-11-07T07:29:33.776Z,11.02
2018-11-07T07:32:04.292Z,11.10
2018-11-07T07:34:34.822Z,10.99
2018-11-07T07:37:05.431Z,11.05
2018-11-07T07:39:35.827Z,11.07
2018-11-07T07:42:06.366Z,11.13
2018-11-07T07:44:36.876Z,11.20
2018-11-07T07:47:07.606Z,11.25
2018-11-07T07:49:38.147Z,11.26
2018-11-07T07:52:08.708Z,11.32
2018-11-07T07:54:39.234Z,11.39
2018-11-07T07:57:09.687Z,11.39
2018-11-07T07:59:40.103Z,11.47
2018-11-07T08:02:10.569Z,11.45
2018-11-07T08:04:41.031Z,11.51
2018-11-07T08:07:11.540Z,11.56
2018-11-07T08:09:41.986Z,11.61
2018-11-07T08:12:12.458Z,11.66
2018-11-07T08:14:42.856Z,11.58
2018-11-07T08:17:13.307Z,11.63
2018-11-07T08:19:43.767Z,11.64
2018-11-07T08:22:14.237Z,11.63
2018-11-07T08:24:44.997Z,11.72
2018-11-07T08:27:15.506Z,11.73
2018-11-07T08:29:45.953Z,11.75
2018-11-07T08:32:16.472Z,11.84
2018-11-07T08:34:46.979Z,11.92
2018-11-07T08:37:17.497Z,11.97
2018-11-07T08:39:48.053Z,11.87
2018-11-07T08:42:18.651Z,11.96
2018-11-07T08:44:49.273Z,12.06
2018-11-07T08:47:19.741Z,11.93
2018-11-07T08:49:50.253Z,11.87
2018-11-07T08:52:20.694Z,11.93
2018-11-07T08:54:51.274Z,11.90
2018-11-07T08:57:21.682Z,11.97
2018-11-07T08:59:52.123Z,11.92
2018-11-07T09:02:22.575Z,11.82
2018-11-07T09:04:53.174Z,11.83
2018-11-07T09:07:23.692Z,11.80
2018-11-07T09:09:54.273Z,11.78
2018-11-07T09:12:24.770Z,11.86
2018-11-07T09:14:56.384Z,11.93
2018-11-07T09:17:26.921Z,12.02
2018-11-07T09:19:57.405Z,11.99
2018-11-07T09:22:28.921Z,11.92
2018-11-07T09:24:59.561Z,11.97
2018-11-07T09:27:30.859Z,12.03
2018-11-07T09:30:01.300Z,11.99
2018-11-07T09:32:31.733Z,12.00
2018-11-07T09:35:02.220Z,12.04
2018-11-07T09:37:32.653Z,12.01
2018-11-07T09:40:03.150Z,11.90
2018-11-07T09:42:33.605Z,11.94
2018-11-07T09:45:04.183Z,11.79
2018-11-07T09:47:34.693Z,11.91
2018-11-07T09:50:05.608Z,11.86
2018-11-07T09:52:36.332Z,11.92
2018-11-07T09:55:08.077Z,11.86
2018-11-07T09:57:38.809Z,11.76
2018-11-07T10:00:12.653Z,11.78
2018-11-07T10:02:43.584Z,11.83
2018-11-07T10:05:15.784Z,11.91
2018-11-07T10:07:46.335Z,11.90
2018-11-07T10:10:18.159Z,11.96
2018-11-07T10:12:48.736Z,11.99
2018-11-07T10:15:19.450Z,11.88
2018-11-07T10:17:49.882Z,11.97
2018-11-07T10:20:22.607Z,11.96
2018-11-07T10:22:53.164Z,11.86
2018-11-07T10:32:22.342Z,11.90
2018-11-07T10:34:52.757Z,11.87
2018-11-07T10:37:32.257Z,11.93
2018-11-07T10:39:53.898Z,11.98
2018-11-07T10:42:24.314Z,11.94
2018-11-07T10:44:54.811Z,12.00
2018-11-07T10:47:25.348Z,11.95
2018-11-07T10:49:55.951Z,12.04
2018-11-07T10:52:26.405Z,11.94
2018-11-07T10:54:56.845Z,12.17
2018-11-07T10:57:27.329Z,12.00
2018-11-07T10:59:57.840Z,11.98
2018-11-07T11:02:33.165Z,11.99
2018-11-07T11:05:03.744Z,12.05
2018-11-07T11:07:34.204Z,12.08
2018-11-07T11:10:04.821Z,12.11
2018-11-07T11:12:35.325Z,12.22
2018-11-07T11:15:06.649Z,12.19
2018-11-07T11:17:37.249Z,12.22
2018-11-07T11:20:09.995Z,12.18
2018-11-07T11:22:40.442Z,12.07
2018-11-07T11:25:11.234Z,12.07
2018-11-07T11:27:42.098Z,12.16
2018-11-07T11:30:12.857Z,12.22
2018-11-07T11:32:43.373Z,12.21
2018-11-07T11:35:14.063Z,12.24
2018-11-07T11:37:44.454Z,12.17
2018-11-07T11:40:15.909Z,12.15
2018-11-07T11:42:46.662Z,12.17
2018-11-07T11:45:17.841Z,12.26
2018-11-07T11:47:48.409Z,12.26
2018-11-07T11:50:20.166Z,12.28
2018-11-07T11:52:50.927Z,12.23
2018-11-07T11:55:21.459Z,12.15
2018-11-07T11:57:52.542Z,12.14
2018-11-07T12:00:23.133Z,12.10
2018-11-07T12:02:53.605Z,12.12
2018-11-07T12:05:24.153Z,12.09
2018-11-07T12:07:54.707Z,12.21
2018-11-07T12:10:26.667Z,12.17
2018-11-07T12:12:58.207Z,12.18
2018-11-07T12:15:29.192Z,12.11
2018-11-07T12:17:59.695Z,12.14
2018-11-07T12:20:30.141Z,11.99
2018-11-07T12:23:00.706Z,11.95
2018-11-07T12:25:31.149Z,12.05
2018-11-07T12:28:01.700Z,12.04
2018-11-07T12:30:32.381Z,12.14
2018-11-07T12:33:02.822Z,12.13
2018-11-07T12:35:33.178Z,12.09
2018-11-07T12:38:03.704Z,12.03
2018-11-07T12:40:34.091Z,12.03
2018-11-07T12:43:04.665Z,12.02
2018-11-07T12:45:35.111Z,12.11
2018-11-07T12:48:05.649Z,12.10
2018-11-07T12:50:36.327Z,11.99
2018-11-07T12:53:06.940Z,12.02
2018-11-07T12:55:37.491Z,12.03
2018-11-07T12:58:08.125Z,12.05
2018-11-07T13:00:38.454Z,12.06
2018-11-07T13:03:08.977Z,12.12
2018-11-07T13:05:39.455Z,12.12
2018-11-07T13:08:10.119Z,12.21
2018-11-07T13:10:40.894Z,12.13
2018-11-07T13:13:12.352Z,12.21
2018-11-07T13:15:42.860Z,12.17
2018-11-07T13:18:13.313Z,12.05
2018-11-07T13:20:43.794Z,12.12
2018-11-07T13:23:14.295Z,12.10
2018-11-07T13:25:44.780Z,12.15
2018-11-07T13:28:15.244Z,12.15
2018-11-07T13:30:45.944Z,12.08
2018-11-07T13:33:16.504Z,12.12
2018-11-07T13:35:46.896Z,12.02
2018-11-07T13:38:17.769Z,12.03
2018-11-07T13:40:48.120Z,12.03
2018-11-07T13:43:18.566Z,12.08
2018-11-07T13:45:49.141Z,12.15
2018-11-07T13:48:19.561Z,12.15
2018-11-07T13:50:50.208Z,12.18
2018-11-07T13:53:20.701Z,12.23
2018-11-07T13:55:51.198Z,12.24
2018-11-07T13:58:21.708Z,12.16
2018-11-07T14:00:52.061Z,12.20
2018-11-07T14:03:22.563Z,12.14
2018-11-07T14:05:53.120Z,12.15
2018-11-07T14:08:23.543Z,12.13
2018-11-07T14:10:54.098Z,12.17
2018-11-07T14:13:24.547Z,12.14
2018-11-07T14:15:55.143Z,12.11
2018-11-07T14:18:25.887Z,12.06
2018-11-07T14:20:56.352Z,12.07
2018-11-07T14:23:26.792Z,12.06
2018-11-07T14:25:57.264Z,12.01
2018-11-07T14:28:27.879Z,11.99
2018-11-07T14:30:58.334Z,11.95
2018-11-07T14:33:28.889Z,11.95
2018-11-07T14:35:59.409Z,12.03
2018-11-07T14:38:29.890Z,12.02
2018-11-07T14:41:00.364Z,11.92
2018-11-07T14:43:30.701Z,11.88
2018-11-07T14:46:01.304Z,11.92
2018-11-07T14:48:31.774Z,11.84
2018-11-07T14:51:02.351Z,11.87
2018-11-07T14:53:32.913Z,11.92
2018-11-07T14:56:03.320Z,11.88
2018-11-07T14:58:33.730Z,11.89
2018-11-07T15:01:04.230Z,11.81
2018-11-07T15:03:34.660Z,11.82
2018-11-07T15:06:05.229Z,11.79
2018-11-07T15:08:35.660Z,11.66
2018-11-07T15:11:06.351Z,11.61
2018-11-07T15:13:36.791Z,11.53
2018-11-07T15:16:07.265Z,11.57
2018-11-07T15:18:37.670Z,11.58
2018-11-07T15:21:08.050Z,11.64
2018-11-07T15:23:38.452Z,11.66
2018-11-07T15:26:08.845Z,11.65
2018-11-07T15:28:39.277Z,11.65
2018-11-07T15:31:09.668Z,11.65
2018-11-07T15:33:40.125Z,11.62
2018-11-07T15:36:10.648Z,11.60
2018-11-07T15:38:41.175Z,11.64
2018-11-07T15:41:11.713Z,11.59
2018-11-07T15:43:42.205Z,11.63
2018-11-07T15:46:12.652Z,11.62
2018-11-07T15:48:43.133Z,11.61
2018-11-07T15:51:14.812Z,11.58
2018-11-07T15:53:45.355Z,11.61
2018-11-07T15:56:15.836Z,11.60
2018-11-07T15:58:46.288Z,11.56
2018-11-07T16:01:16.669Z,11.47
2018-11-07T16:03:51.121Z,11.42
2018-11-07T16:06:21.726Z,11.34
2018-11-07T16:08:52.561Z,11.39
2018-11-07T16:11:23.169Z,11.30
2018-11-07T16:13:53.687Z,11.32
2018-11-07T16:16:24.160Z,11.28
2018-11-07T16:18:54.735Z,11.31
2018-11-07T16:21:25.246Z,11.26
2018-11-07T16:23:56.213Z,11.19
2018-11-07T16:26:26.694Z,11.24
2018-11-07T16:28:57.289Z,11.26
2018-11-07T16:31:28.051Z,11.23
2018-11-07T16:33:58.461Z,11.21
2018-11-07T16:36:29.085Z,11.15
2018-11-07T16:38:59.542Z,10.96
2018-11-07T16:41:30.262Z,10.96
2018-11-07T16:49:02.496Z,10.98
2018-11-07T16:51:33.163Z,11.05
2018-11-07T16:54:03.837Z,10.98
2018-11-07T16:56:34.496Z,10.99
2018-11-07T16:59:05.125Z,11.03
2018-11-07T17:01:35.708Z,11.08
2018-11-07T17:04:06.577Z,11.10
2018-11-07T17:06:37.420Z,10.98
2018-11-07T17:09:09.822Z,10.92
2018-11-07T17:11:40.845Z,10.92
2018-11-07T17:14:11.357Z,10.94
2018-11-07T17:16:41.815Z,10.97
2018-11-07T17:19:12.349Z,10.96
2018-11-07T17:21:42.905Z,10.99
2018-11-07T17:24:13.660Z,10.94
2018-11-07T17:26:44.262Z,10.92
2018-11-07T17:29:14.766Z,10.90
2018-11-07T17:31:45.376Z,10.87
2018-11-07T17:34:15.775Z,10.90
2018-11-07T17:36:46.390Z,10.88
2018-11-07T17:39:16.879Z,10.80
2018-11-07T17:43:11.650Z,10.79
2018-11-07T17:47:06.376Z,10.72
2018-11-07T17:49:36.802Z,10.70
2018-11-07T17:52:07.274Z,10.65
2018-11-07T17:54:37.878Z,10.66
2018-11-07T17:57:08.505Z,10.71
2018-11-07T17:59:39.035Z,10.63
2018-11-07T18:02:09.552Z,10.67
2018-11-07T18:04:39.998Z,10.62
2018-11-07T18:07:10.488Z,10.58
2018-11-07T18:09:41.104Z,10.61
2018-11-07T18:12:11.673Z,10.65
2018-11-07T18:14:42.309Z,10.66
2018-11-07T18:17:12.833Z,10.71
2018-11-07T18:19:43.313Z,10.67
2018-11-07T18:22:13.920Z,10.61
2018-11-07T18:24:44.403Z,10.69
2018-11-07T18:27:15.156Z,10.63
2018-11-07T18:29:45.684Z,10.56
2018-11-07T18:32:16.278Z,10.62
2018-11-07T18:34:46.803Z,10.51
2018-11-07T18:37:17.312Z,10.56
2018-11-07T18:39:47.752Z,10.49
2018-11-07T18:42:18.196Z,10.38
2018-11-07T18:44:48.741Z,10.32
2018-11-07T18:47:19.480Z,10.34
2018-11-07T18:49:50.045Z,10.39
2018-11-07T18:52:20.533Z,10.38
2018-11-07T18:54:51.067Z,10.36
2018-11-07T18:57:21.614Z,10.30
2018-11-07T18:59:52.120Z,10.33
2018-11-07T19:02:22.727Z,10.37
2018-11-07T19:04:53.499Z,10.40
2018-11-07T19:07:24.225Z,10.50
2018-11-07T19:09:54.775Z,10.50
2018-11-07T19:12:25.330Z,10.53
2018-11-07T19:14:55.843Z,10.48
2018-11-07T19:17:26.400Z,10.46
2018-11-07T19:19:57.081Z,10.36
2018-11-07T19:22:27.656Z,10.36
2018-11-07T19:24:58.257Z,10.40
2018-11-07T19:27:28.910Z,10.42
2018-11-07T19:29:59.497Z,10.44
2018-11-07T19:32:30.257Z,10.39
2018-11-07T19:35:00.815Z,10.37
2018-11-07T19:37:31.341Z,10.38
2018-11-07T19:40:01.993Z,10.34
2018-11-07T19:42:32.575Z,10.35
2018-11-07T19:45:03.168Z,10.46
2018-11-07T19:47:33.864Z,10.51
2018-11-07T19:50:05.360Z,10.46
2018-11-07T19:52:36.081Z,10.42
2018-11-07T19:55:07.960Z,10.38
2018-11-07T19:57:38.535Z,10.42
2018-11-07T20:00:12.242Z,10.30
2018-11-07T20:02:43.378Z,10.24
2018-11-07T20:05:14.008Z,10.24
2018-11-07T20:07:44.808Z,10.24
2018-11-07T20:10:17.715Z,10.23
2018-11-07T20:12:48.239Z,10.23
2018-11-07T20:15:19.706Z,10.28
2018-11-07T20:17:50.324Z,10.28
2018-11-07T20:20:20.759Z,10.31
2018-11-07T20:22:51.456Z,10.30
2018-11-07T20:25:21.920Z,10.37
2018-11-07T20:27:53.823Z,10.37
2018-11-07T20:30:24.493Z,10.42
2018-11-07T20:32:55.149Z,10.39
2018-11-07T20:35:25.815Z,10.43
2018-11-07T20:37:56.299Z,10.39
2018-11-07T20:40:26.764Z,10.39
2018-11-07T20:42:57.223Z,10.38
2018-11-07T20:45:27.600Z,10.33
2018-11-07T20:47:58.110Z,10.39
2018-11-07T20:50:28.574Z,10.42
2018-11-07T20:52:59.049Z,10.41
2018-11-07T20:55:29.500Z,10.33
2018-11-07T20:58:00.106Z,10.26
2018-11-07T21:00:30.672Z,10.22
2018-11-07T21:03:01.126Z,10.26
2018-11-07T21:05:31.714Z,10.27
2018-11-07T21:08:02.302Z,10.26
2018-11-07T21:10:32.748Z,9.99
2018-11-07T21:13:03.238Z,10.13
2018-11-07T21:15:33.676Z,10.11
2018-11-07T21:18:04.128Z,10.06
2018-11-07T21:20:35.025Z,10.09
2018-11-07T21:23:05.539Z,10.03
2018-11-07T21:25:35.999Z,10.07
2018-11-07T21:28:06.583Z,10.03
2018-11-07T21:30:37.059Z,10.06
2018-11-07T21:38:10.213Z,10.04
2018-11-07T21:40:40.703Z,10.04
2018-11-07T21:43:11.245Z,10.02
2018-11-07T21:45:41.683Z,9.96
2018-11-07T21:48:12.184Z,9.91
2018-11-07T21:50:42.606Z,9.89
2018-11-07T21:53:13.072Z,9.91
2018-11-07T21:55:43.781Z,9.94
2018-11-07T21:58:14.305Z,9.98
2018-11-07T22:00:44.810Z,9.99
2018-11-07T22:03:15.180Z,10.04
2018-11-07T22:05:45.612Z,10.03
2018-11-07T22:08:16.184Z,10.04
2018-11-07T22:10:46.640Z,10.05
2018-11-07T22:13:17.263Z,10.02
2018-11-07T22:15:48.152Z,10.02
2018-11-07T22:18:18.667Z,9.96
2018-11-07T22:20:49.231Z,9.91
2018-11-07T22:23:19.731Z,9.91
2018-11-07T22:25:50.160Z,9.99
2018-11-07T22:28:20.684Z,10.05
2018-11-07T22:30:51.269Z,10.09
2018-11-07T22:33:21.879Z,10.08
2018-11-07T22:35:52.648Z,10.04
2018-11-07T22:38:23.233Z,10.03
2018-11-07T22:40:53.763Z,10.02
2018-11-07T22:43:24.319Z,10.02
2018-11-07T22:45:54.954Z,10.00
2018-11-07T22:48:25.535Z,9.90
2018-11-07T22:50:56.058Z,9.87
2018-11-07T22:53:26.644Z,9.93
2018-11-07T22:55:57.203Z,9.97
2018-11-07T22:58:27.707Z,9.91
2018-11-07T23:01:03.144Z,10.01
2018-11-07T23:03:33.721Z,9.94
2018-11-07T23:06:04.280Z,9.90
2018-11-07T23:08:34.792Z,9.89
2018-11-07T23:11:05.394Z,9.84
2018-11-07T23:13:35.918Z,9.92
2018-11-07T23:16:06.648Z,9.96
2018-11-07T23:18:37.162Z,9.93
2018-11-07T23:21:08.041Z,9.84
2018-11-07T23:23:38.572Z,9.82
2018-11-07T23:26:09.061Z,9.81
2018-11-07T23:28:39.600Z,9.81
2018-11-07T23:31:10.108Z,9.88
2018-11-07T23:33:40.649Z,9.90
2018-11-07T23:36:11.464Z,9.84
2018-11-07T23:38:42.013Z,9.90
2018-11-07T23:41:12.560Z,9.83
2018-11-07T23:43:43.028Z,9.79
2018-11-07T23:46:13.501Z,9.81
2018-11-07T23:48:44.055Z,9.90
2018-11-07T23:51:14.585Z,10.00
2018-11-07T23:53:45.125Z,9.98
2018-11-07T23:56:16.694Z,10.00
2018-11-07T23:58:47.174Z,10.06
